Time;durP1;ratioP1;P1;durP2;ratioP2;P2;SDS_P1;SDS_P2;PMS_P1;PMS_P2;Temp;Humidity;BMP_temperature;BMP_pressure;BME280_temperature;BME280_humidity;BME280_pressure;Samples;Min_cycle;Max_cycle;Signal;HPM_P1;HPM_P2
2023/06/10 00:01:30;;;;;;;13.30;12.00;;;16.40;99.90;;;;;;2604022;54;20026;31
2023/06/10 00:04:04;;;;;;;;;;;16.50;99.90;;;;;;2603999;54;20826;31
2023/06/10 00:06:39;;;;;;;15.98;14.48;;;16.40;99.90;;;;;;2603965;54;20717;31
2023/06/10 00:09:14;;;;;;;21.40;18.80;;;16.40;99.90;;;;;;2603819;54;20031;31
2023/06/10 00:11:51;;;;;;;22.47;17.30;;;16.40;99.90;;;;;;2603804;54;20036;31
2023/06/10 00:14:26;;;;;;;20.05;18.00;;;16.40;99.90;;;;;;2622714;46;20837;31
2023/06/10 00:17:01;;;;;;;17.05;15.45;;;16.40;99.90;;;;;;2604124;54;20093;31
2023/06/10 00:19:35;;;;;;;16.70;15.10;;;16.40;99.90;;;;;;2622129;46;20853;31
2023/06/10 00:22:10;;;;;;;16.83;14.23;;;16.40;99.90;;;;;;2603824;54;20930;31
2023/06/10 00:24:45;;;;;;;17.20;15.02;;;16.40;99.90;;;;;;2603814;54;20030;31
2023/06/10 00:27:22;;;;;;;17.92;16.05;;;16.40;99.90;;;;;;2603795;54;20027;31
2023/06/10 00:29:57;;;;;;;21.13;18.08;;;16.40;99.90;;;;;;2603812;54;20049;31
2023/06/10 00:32:32;;;;;;;16.52;15.02;;;16.40;99.90;;;;;;2603553;54;20045;31
2023/06/10 00:35:10;;;;;;;18.15;16.45;;;16.40;99.90;;;;;;2603746;54;20026;31
2023/06/10 00:37:45;;;;;;;19.08;17.13;;;16.40;99.90;;;;;;2603770;54;20034;31
2023/06/10 00:40:20;;;;;;;17.10;15.50;;;16.40;99.90;;;;;;2603882;54;20040;31
2023/06/10 00:42:57;;;;;;;18.40;16.23;;;16.50;99.90;;;;;;2603751;54;20037;31
2023/06/10 00:45:32;;;;;;;16.58;14.95;;;16.50;99.90;;;;;;2603732;54;20041;31
2023/06/10 00:48:07;;;;;;;17.80;16.10;;;16.50;99.90;;;;;;2603845;54;20055;31
2023/06/10 00:50:42;;;;;;;14.70;13.20;;;16.50;99.90;;;;;;2603681;54;20022;31
2023/06/10 00:53:17;;;;;;;17.08;15.27;;;16.50;99.90;;;;;;2621764;46;20915;31
2023/06/10 00:55:51;;;;;;;14.40;13.00;;;16.50;99.90;;;;;;2622086;46;20022;31
2023/06/10 00:58:28;;;;;;;12.95;11.75;;;16.50;99.90;;;;;;2603638;54;20030;31
2023/06/10 01:01:03;;;;;;;12.60;11.23;;;16.50;99.90;;;;;;2603566;54;20027;31
2023/06/10 01:03:38;;;;;;;13.48;12.25;;;16.50;99.90;;;;;;2603798;54;20042;31
2023/06/10 01:06:17;;;;;;;14.88;13.32;;;16.50;99.90;;;;;;2603710;54;20030;31
2023/06/10 01:08:55;;;;;;;11.88;10.77;;;16.50;99.90;;;;;;2603690;54;20031;31
2023/06/10 01:11:32;;;;;;;12.38;11.25;;;16.50;99.90;;;;;;2603489;54;20030;31
2023/06/10 01:14:10;;;;;;;16.38;13.85;;;16.60;99.90;;;;;;2603591;54;20029;31
2023/06/10 01:16:45;;;;;;;15.55;13.48;;;16.50;99.90;;;;;;2603661;54;20060;31
2023/06/10 01:19:20;;;;;;;14.03;12.73;;;16.50;99.90;;;;;;2603680;54;20030;31
2023/06/10 01:22:00;;;;;;;11.68;10.57;;;16.60;99.90;;;;;;2603700;54;20895;31
2023/06/10 01:24:35;;;;;;;11.38;10.27;;;16.60;99.90;;;;;;2603529;54;20873;31
2023/06/10 01:27:13;;;;;;;13.40;10.55;;;16.60;99.90;;;;;;2603603;54;20048;31
2023/06/10 01:29:49;;;;;;;10.20;9.20;;;16.50;99.90;;;;;;2603545;54;20037;31
2023/06/10 01:32:26;;;;;;;14.27;12.77;;;16.60;99.90;;;;;;2603738;54;20022;31
2023/06/10 01:35:00;;;;;;;12.35;11.25;;;16.60;99.90;;;;;;2603662;54;20034;31
2023/06/10 01:37:37;;;;;;;12.70;11.40;;;16.60;99.90;;;;;;2603413;54;20131;31
2023/06/10 01:40:14;;;;;;;12.88;11.07;;;16.60;99.90;;;;;;2621810;46;20762;31
2023/06/10 01:42:49;;;;;;;18.83;14.02;;;16.60;99.90;;;;;;2603468;54;20882;31
2023/06/10 01:45:23;;;;;;;12.27;11.10;;;16.60;99.90;;;;;;2621598;46;20041;31
2023/06/10 01:47:57;;;;;;;16.20;14.52;;;16.60;99.90;;;;;;2603487;54;20030;31
2023/06/10 01:50:33;;;;;;;15.98;14.48;;;16.60;99.90;;;;;;2603523;54;20033;31
2023/06/10 01:53:07;;;;;;;13.50;12.30;;;16.60;99.90;;;;;;2603636;54;20026;31
2023/06/10 01:55:44;;;;;;;15.45;13.18;;;16.60;99.90;;;;;;2603554;54;20859;31
2023/06/10 01:58:17;;;;;;;15.00;13.67;;;16.60;99.90;;;;;;2603557;54;20089;31
2023/06/10 02:00:52;;;;;;;17.23;15.57;;;16.60;99.90;;;;;;2621905;46;20026;31
2023/06/10 02:03:27;;;;;;;13.00;11.70;;;16.60;99.90;;;;;;2603599;54;20081;31
2023/06/10 02:06:02;;;;;;;14.57;13.07;;;16.60;99.90;;;;;;2603584;54;20030;31
2023/06/10 02:08:37;;;;;;;16.50;13.40;;;16.60;99.90;;;;;;2603612;54;20030;31
2023/06/10 02:11:13;;;;;;;15.50;11.85;;;16.60;99.90;;;;;;2622093;46;20230;31
2023/06/10 02:13:48;;;;;;;18.10;16.30;;;16.60;99.90;;;;;;2621984;46;20033;31
2023/06/10 02:16:23;;;;;;;16.07;14.47;;;16.60;99.90;;;;;;2603416;54;20036;31
2023/06/10 02:18:58;;;;;;;18.10;15.73;;;16.60;99.90;;;;;;2603359;54;20031;31
2023/06/10 02:21:34;;;;;;;16.33;14.67;;;16.60;99.90;;;;;;2621695;46;20907;31
2023/06/10 02:24:10;;;;;;;19.05;17.17;;;16.60;99.90;;;;;;2603071;54;20235;31
2023/06/10 02:26:47;;;;;;;18.60;16.70;;;16.60;99.90;;;;;;2621561;46;20057;31
2023/06/10 02:29:23;;;;;;;15.05;13.55;;;16.60;99.90;;;;;;2603330;54;20029;31
2023/06/10 02:31:57;;;;;;;24.00;20.00;;;16.60;99.90;;;;;;2603291;54;20027;31
2023/06/10 02:34:32;;;;;;;17.50;15.07;;;16.60;99.90;;;;;;2603424;54;20026;31
2023/06/10 02:37:08;;;;;;;15.45;13.85;;;16.60;99.90;;;;;;2621720;46;20022;31
2023/06/10 02:39:42;;;;;;;16.13;14.40;;;16.60;99.90;;;;;;2603289;54;20089;31
2023/06/10 02:42:20;;;;;;;20.57;17.57;;;16.60;99.90;;;;;;2621573;46;20048;31
2023/06/10 02:44:57;;;;;;;17.20;15.60;;;16.70;99.90;;;;;;2603226;54;20026;31
2023/06/10 02:47:42;;;;;;;14.70;13.30;;;16.70;99.90;;;;;;2603190;54;20859;31
2023/06/10 02:50:18;;;;;;;19.80;17.83;;;16.60;99.90;;;;;;2603274;54;20974;31
2023/06/10 02:53:15;;;;;;;14.63;13.18;;;16.60;99.90;;;;;;2621468;46;20907;31
2023/06/10 02:55:55;;;;;;;14.75;13.35;;;16.70;99.90;;;;;;2621576;46;20071;31
2023/06/10 02:58:33;;;;;;;19.50;16.85;;;16.60;99.90;;;;;;2603218;54;20826;31
2023/06/10 03:01:09;;;;;;;19.50;16.48;;;16.60;99.90;;;;;;2603109;54;20762;31
2023/06/10 03:03:53;;;;;;;19.90;16.27;;;16.60;99.90;;;;;;2603073;54;20033;31
2023/06/10 03:06:29;;;;;;;14.93;13.43;;;16.60;99.90;;;;;;2603055;54;20026;31
2023/06/10 03:09:15;;;;;;;18.52;16.55;;;16.50;99.90;;;;;;2603064;54;20033;31
2023/06/10 03:11:53;;;;;;;18.10;16.27;;;16.60;99.90;;;;;;2603152;54;20030;31
2023/06/10 03:14:32;;;;;;;20.83;17.30;;;16.50;99.90;;;;;;2603214;54;20026;31
2023/06/10 03:19:42;;;;;;;17.33;15.50;;;16.50;99.90;;;;;;2601933;46;20980;31
2023/06/10 03:22:17;;;;;;;19.70;16.02;;;16.50;99.90;;;;;;2600712;54;21161;31
2023/06/10 03:25:00;;;;;;;14.05;12.60;;;16.50;99.90;;;;;;2618656;46;20893;31
2023/06/10 03:27:35;;;;;;;21.27;13.90;;;16.50;99.90;;;;;;2600912;39;20282;31
2023/06/10 03:30:20;;;;;;;18.20;16.50;;;16.50;99.90;;;;;;2600110;54;20041;31
2023/06/10 03:32:55;;;;;;;15.88;14.18;;;16.60;99.90;;;;;;2604401;47;20820;31
2023/06/10 03:35:34;;;;;;;14.65;13.15;;;16.60;99.90;;;;;;2603112;54;20068;31
2023/06/10 03:38:11;;;;;;;19.30;17.30;;;16.60;99.90;;;;;;2720930;39;21515;31
2023/06/10 03:40:46;;;;;;;17.07;15.13;;;16.60;99.90;;;;;;2603603;54;20086;31
2023/06/10 03:43:21;;;;;;;18.70;16.88;;;16.70;99.90;;;;;;2603478;54;20030;31
2023/06/10 03:46:00;;;;;;;15.70;14.10;;;16.70;99.90;;;;;;2603262;54;20844;31
2023/06/10 03:48:36;;;;;;;13.25;11.85;;;16.70;99.90;;;;;;2603489;54;20053;31
2023/06/10 03:51:10;;;;;;;;;;;16.70;99.90;;;;;;2603643;54;20892;31
2023/06/10 03:53:46;;;;;;;18.20;16.38;;;16.80;99.90;;;;;;2603536;54;20797;31
2023/06/10 03:56:20;;;;;;;17.10;15.57;;;16.90;99.90;;;;;;2603701;54;20869;31
2023/06/10 03:58:56;;;;;;;18.60;15.68;;;16.90;99.90;;;;;;2603584;54;20049;31
2023/06/10 04:01:35;;;;;;;17.95;16.27;;;17.00;99.90;;;;;;2603578;54;20823;31
2023/06/10 04:04:10;;;;;;;17.30;15.32;;;17.00;99.90;;;;;;2603488;54;20113;31
2023/06/10 04:06:44;;;;;;;18.77;16.83;;;17.00;99.90;;;;;;2603539;54;20029;31
2023/06/10 04:09:19;;;;;;;18.95;16.90;;;17.10;99.90;;;;;;2603516;54;20030;31
2023/06/10 04:11:54;;;;;;;19.55;17.77;;;17.10;99.90;;;;;;2603271;54;20049;31
2023/06/10 04:14:29;;;;;;;22.52;20.13;;;17.20;99.90;;;;;;2603505;54;20026;31
2023/06/10 04:17:10;;;;;;;23.57;19.67;;;17.20;99.90;;;;;;2603650;54;20029;31
2023/06/10 04:19:44;;;;;;;26.38;22.48;;;17.30;99.90;;;;;;2621634;46;20068;31
2023/06/10 04:22:19;;;;;;;25.92;23.15;;;17.30;99.90;;;;;;2621967;46;20030;31
2023/06/10 04:24:54;;;;;;;22.38;20.08;;;17.30;99.90;;;;;;2603608;54;20101;31
2023/06/10 04:27:29;;;;;;;24.83;21.73;;;17.40;99.90;;;;;;2603346;54;20053;31
2023/06/10 04:30:04;;;;;;;20.80;18.00;;;17.40;99.90;;;;;;2603417;54;20027;31
2023/06/10 04:32:44;;;;;;;20.25;18.20;;;17.50;99.90;;;;;;2603406;54;20060;31
2023/06/10 04:35:23;;;;;;;17.27;15.57;;;17.50;99.90;;;;;;2621773;46;20051;31
2023/06/10 04:37:56;;;;;;;16.40;14.77;;;17.50;99.90;;;;;;2701751;39;22389;31
2023/06/10 04:40:31;;;;;;;15.30;13.90;;;17.60;99.90;;;;;;2603406;54;20034;31
2023/06/10 04:43:06;;;;;;;20.50;17.55;;;17.60;99.90;;;;;;2603336;54;20932;31
2023/06/10 04:45:44;;;;;;;19.55;17.50;;;17.60;99.90;;;;;;2603089;54;20740;31
2023/06/10 04:48:24;;;;;;;14.88;13.57;;;17.60;99.90;;;;;;2603359;54;20027;31
2023/06/10 04:51:01;;;;;;;16.38;14.50;;;17.70;99.90;;;;;;2603258;54;20026;31
2023/06/10 04:53:36;;;;;;;;;;;17.70;99.90;;;;;;2603661;54;20026;31
2023/06/10 04:56:11;;;;;;;18.95;17.05;;;17.70;99.90;;;;;;2603137;54;19934;31
2023/06/10 04:58:46;;;;;;;;;;;17.70;99.90;;;;;;2603507;54;20130;31
2023/06/10 05:01:21;;;;;;;18.53;16.47;;;17.70;99.90;;;;;;2603392;54;19934;31
2023/06/10 05:03:59;;;;;;;16.50;14.05;;;17.70;99.90;;;;;;2603062;54;20049;31
2023/06/10 05:06:35;;;;;;;18.20;16.45;;;17.70;99.90;;;;;;2603255;54;20881;31
2023/06/10 05:09:10;;;;;;;16.02;14.52;;;17.70;99.90;;;;;;2603528;54;20023;31
2023/06/10 05:11:46;;;;;;;16.10;14.57;;;17.80;99.90;;;;;;2603416;54;21012;31
2023/06/10 05:14:21;;;;;;;16.45;14.95;;;17.80;99.90;;;;;;2603061;54;20031;31
2023/06/10 05:16:56;;;;;;;14.63;13.18;;;17.80;99.90;;;;;;2603393;54;20048;31
2023/06/10 05:19:35;;;;;;;17.20;15.60;;;17.90;99.90;;;;;;2622156;46;20034;31
2023/06/10 05:22:13;;;;;;;16.75;14.75;;;17.90;99.90;;;;;;2603573;54;20807;31
2023/06/10 05:24:47;;;;;;;15.80;13.10;;;18.00;99.90;;;;;;2603108;54;20060;31
2023/06/10 05:27:22;;;;;;;18.35;16.50;;;18.00;99.90;;;;;;2603033;54;20959;31
2023/06/10 05:29:58;;;;;;;16.53;14.93;;;18.10;99.90;;;;;;2603169;54;20081;31
2023/06/10 05:32:33;;;;;;;15.90;14.23;;;18.10;99.90;;;;;;2603193;54;20099;31
2023/06/10 05:35:13;;;;;;;17.17;15.57;;;18.20;99.90;;;;;;2603303;54;20026;31
2023/06/10 05:37:49;;;;;;;17.07;15.33;;;18.30;99.90;;;;;;2621169;46;20031;31
2023/06/10 05:40:24;;;;;;;15.70;14.10;;;18.40;99.90;;;;;;2603321;54;20773;31
2023/06/10 05:43:00;;;;;;;15.20;13.70;;;18.40;99.90;;;;;;2603261;54;20858;31
2023/06/10 05:45:35;;;;;;;15.35;13.77;;;18.50;99.90;;;;;;2603168;54;21024;31
2023/06/10 05:48:11;;;;;;;17.25;15.43;;;18.60;99.90;;;;;;2603345;54;20034;31
2023/06/10 05:50:49;;;;;;;16.70;15.15;;;18.70;99.90;;;;;;2603236;54;20022;31
2023/06/10 05:53:25;;;;;;;17.52;15.70;;;18.80;99.90;;;;;;2603178;54;20945;31
2023/06/10 05:56:00;;;;;;;20.40;14.60;;;18.90;99.90;;;;;;2602945;54;20877;31
2023/06/10 05:58:35;;;;;;;15.68;13.98;;;19.00;99.90;;;;;;2704630;39;21622;31
2023/06/10 06:01:10;;;;;;;16.20;14.70;;;19.10;99.90;;;;;;2602999;54;20097;31
2023/06/10 06:03:46;;;;;;;16.57;14.83;;;19.30;99.90;;;;;;2603058;54;20279;31
2023/06/10 06:06:23;;;;;;;14.70;13.35;;;19.40;99.90;;;;;;2621481;46;20054;31
2023/06/10 06:08:59;;;;;;;16.17;14.53;;;19.70;99.90;;;;;;2603207;54;20033;31
2023/06/10 06:11:34;;;;;;;12.38;11.18;;;19.90;99.90;;;;;;2602796;54;20737;31
2023/06/10 06:14:09;;;;;;;14.48;12.82;;;20.30;99.90;;;;;;2621261;46;20081;31
2023/06/10 06:16:44;;;;;;;17.02;12.57;;;20.50;99.90;;;;;;2603126;54;20029;31
2023/06/10 06:19:19;;;;;;;14.98;13.40;;;20.80;99.90;;;;;;2621228;46;20601;31
2023/06/10 06:21:57;;;;;;;15.05;13.70;;;20.90;99.90;;;;;;2602950;54;20077;31
2023/06/10 06:24:32;;;;;;;14.85;13.45;;;21.00;99.90;;;;;;2602888;54;20037;31
2023/06/10 06:27:08;;;;;;;14.25;12.90;;;21.20;99.90;;;;;;2621540;46;20982;31
2023/06/10 06:29:42;;;;;;;14.77;12.90;;;21.30;99.90;;;;;;2602964;54;20050;31
2023/06/10 06:32:19;;;;;;;14.45;13.20;;;21.30;99.90;;;;;;2621754;46;20952;31
2023/06/10 06:34:54;;;;;;;14.17;12.57;;;21.20;99.90;;;;;;2602923;54;20121;31
2023/06/10 06:37:31;;;;;;;15.15;12.73;;;21.20;99.90;;;;;;2602634;54;20122;31
2023/06/10 06:40:26;;;;;;;12.90;11.70;;;21.20;99.90;;;;;;2602808;54;20034;31
2023/06/10 06:43:02;;;;;;;13.43;12.03;;;21.20;99.90;;;;;;2603093;54;20034;31
2023/06/10 06:45:42;;;;;;;13.25;11.85;;;21.20;99.90;;;;;;2621263;46;20033;31
2023/06/10 06:48:18;;;;;;;12.55;11.35;;;21.20;99.90;;;;;;2602689;54;20026;31
2023/06/10 06:50:53;;;;;;;11.93;10.83;;;21.20;99.90;;;;;;2602890;54;25076;31
2023/06/10 06:53:28;;;;;;;12.85;11.55;;;21.20;99.90;;;;;;2602875;54;22642;31
2023/06/10 06:56:08;;;;;;;11.55;10.40;;;21.30;99.90;;;;;;2602776;54;20915;31
2023/06/10 06:58:43;;;;;;;12.48;11.18;;;21.30;99.90;;;;;;2701212;39;20494;31
2023/06/10 07:01:17;;;;;;;12.20;10.53;;;21.40;99.90;;;;;;2602976;54;20834;31
2023/06/10 07:03:52;;;;;;;12.80;11.57;;;21.40;99.90;;;;;;2602890;54;20267;31
2023/06/10 07:06:28;;;;;;;10.80;9.77;;;21.40;99.90;;;;;;2621276;46;20904;31
2023/06/10 07:09:05;;;;;;;14.00;11.50;;;21.50;99.90;;;;;;2602760;54;20031;31
2023/06/10 07:11:39;;;;;;;11.57;10.57;;;21.60;99.90;;;;;;2603057;54;20250;31
2023/06/10 07:14:13;;;;;;;13.07;10.52;;;21.60;99.90;;;;;;2621361;46;20788;31
2023/06/10 07:16:49;;;;;;;12.90;10.83;;;21.70;99.90;;;;;;2602702;54;20030;31
2023/06/10 07:19:25;;;;;;;12.50;11.30;;;21.70;99.90;;;;;;2719430;39;20572;31
2023/06/10 07:21:59;;;;;;;13.77;10.68;;;21.80;99.90;;;;;;2602943;54;20845;31
2023/06/10 07:24:37;;;;;;;12.25;11.10;;;21.90;99.90;;;;;;2602968;54;20023;31
2023/06/10 07:27:12;;;;;;;11.70;10.57;;;22.00;99.90;;;;;;2790827;31;20633;31
2023/06/10 07:29:48;;;;;;;13.45;11.25;;;22.00;99.90;;;;;;2602723;54;20036;31
2023/06/10 07:32:23;;;;;;;11.50;10.40;;;22.10;99.90;;;;;;2602636;54;20037;31
2023/06/10 07:34:59;;;;;;;;;;;22.20;99.90;;;;;;2621646;47;20030;31
2023/06/10 07:37:34;;;;;;;11.95;10.85;;;22.40;99.90;;;;;;2602789;54;19956;31
2023/06/10 07:40:13;;;;;;;12.70;11.50;;;22.50;99.90;;;;;;2602762;54;20763;31
2023/06/10 07:42:47;;;;;;;12.25;11.02;;;22.70;99.90;;;;;;2602785;54;20038;31
2023/06/10 07:45:20;;;;;;;11.85;10.65;;;22.80;99.90;;;;;;2602820;54;22307;31
2023/06/10 07:47:54;;;;;;;11.35;10.02;;;22.80;99.90;;;;;;2602831;54;20952;31
2023/06/10 07:50:27;;;;;;;11.97;10.80;;;22.80;99.90;;;;;;2621151;47;20037;31
2023/06/10 07:53:02;;;;;;;11.90;10.75;;;22.70;99.90;;;;;;2602677;54;20897;31
2023/06/10 07:55:40;;;;;;;12.35;10.30;;;22.60;99.90;;;;;;2719525;39;20484;31
2023/06/10 07:58:15;;;;;;;12.02;10.82;;;22.60;99.90;;;;;;2602777;54;20030;31
2023/06/10 08:00:50;;;;;;;12.00;10.80;;;22.60;99.90;;;;;;2621183;47;20858;31
2023/06/10 08:03:24;;;;;;;15.20;11.30;;;22.60;99.90;;;;;;2602870;54;20053;31
2023/06/10 08:05:59;;;;;;;12.07;10.88;;;22.60;99.90;;;;;;2602750;54;20249;31
2023/06/10 08:08:41;;;;;;;12.40;11.10;;;22.70;99.90;;;;;;2602498;54;20026;31
2023/06/10 08:11:17;;;;;;;11.68;10.55;;;22.90;99.90;;;;;;2621037;47;20112;31
2023/06/10 08:13:53;;;;;;;11.55;10.43;;;23.00;99.90;;;;;;2602891;54;20900;31
2023/06/10 08:16:27;;;;;;;10.80;9.88;;;23.10;99.90;;;;;;2602500;54;20085;31
2023/06/10 08:19:00;;;;;;;10.47;9.37;;;23.20;99.90;;;;;;2602557;54;20030;31
2023/06/10 08:21:36;;;;;;;10.43;8.50;;;23.40;99.90;;;;;;2621786;47;20261;31
2023/06/10 08:24:12;;;;;;;12.65;8.15;;;23.70;99.90;;;;;;2603495;54;20034;31
2023/06/10 08:26:50;;;;;;;9.40;8.50;;;24.10;99.90;;;;;;2603471;54;20065;31
2023/06/10 08:29:31;;;;;;;8.82;8.00;;;24.40;99.90;;;;;;2603553;54;20134;31
2023/06/10 08:32:07;;;;;;;9.20;7.72;;;24.70;99.90;;;;;;2621074;46;20027;31
2023/06/10 08:34:42;;;;;;;8.95;8.05;;;24.90;99.90;;;;;;2603392;54;20038;31
2023/06/10 08:37:18;;;;;;;9.13;7.37;;;24.90;99.90;;;;;;2603122;54;20886;31
2023/06/10 08:39:54;;;;;;;8.20;7.40;;;25.00;99.90;;;;;;2603308;54;20877;31
2023/06/10 08:42:36;;;;;;;8.18;7.40;;;25.10;99.90;;;;;;2603211;54;20919;31
2023/06/10 08:45:12;;;;;;;7.53;6.83;;;25.20;99.90;;;;;;2621796;46;20030;31
2023/06/10 08:47:46;;;;;;;10.23;6.80;;;25.20;99.90;;;;;;2603230;54;20970;31
2023/06/10 08:50:23;;;;;;;7.95;7.15;;;25.20;99.90;;;;;;2603237;54;20084;31
2023/06/10 08:52:57;;;;;;;8.75;7.63;;;25.20;99.90;;;;;;2603326;54;20874;31
2023/06/10 08:55:34;;;;;;;8.10;7.30;;;25.30;99.90;;;;;;2603539;54;20022;31
2023/06/10 08:58:12;;;;;;;8.18;7.38;;;25.40;99.90;;;;;;2603271;54;20029;31
2023/06/10 09:00:47;;;;;;;10.77;7.75;;;25.60;99.90;;;;;;2603097;54;20037;31
2023/06/10 09:03:24;;;;;;;8.85;7.95;;;25.80;99.90;;;;;;2603288;54;20034;31
2023/06/10 09:05:59;;;;;;;8.25;7.50;;;25.90;99.90;;;;;;2603070;54;20113;31
2023/06/10 09:08:34;;;;;;;9.35;8.23;;;26.10;99.90;;;;;;2603022;54;20050;31
2023/06/10 09:11:08;;;;;;;;;;;26.30;99.90;;;;;;2603491;54;20035;31
2023/06/10 09:13:46;;;;;;;10.70;8.30;;;26.50;99.90;;;;;;2602745;54;19935;31
2023/06/10 09:16:21;;;;;;;10.63;9.50;;;26.70;99.90;;;;;;2602894;54;20896;31
2023/06/10 09:18:58;;;;;;;10.25;8.98;;;26.90;99.90;;;;;;2701551;39;21629;31
2023/06/10 09:21:31;;;;;;;11.85;9.43;;;27.10;99.90;;;;;;2621429;46;21186;31
2023/06/10 09:24:07;;;;;;;12.15;9.68;;;27.30;99.90;;;;;;2621575;46;20026;31
2023/06/10 09:26:40;;;;;;;10.85;9.68;;;27.60;99.90;;;;;;2603047;54;21268;31
2023/06/10 09:29:18;;;;;;;10.97;9.87;;;27.70;99.90;;;;;;2621480;46;20027;31
2023/06/10 09:31:52;;;;;;;13.00;11.25;;;27.90;99.90;;;;;;2603025;54;20265;31
2023/06/10 09:34:28;;;;;;;11.60;10.53;;;27.90;99.90;;;;;;2602956;54;20125;31
2023/06/10 09:37:02;;;;;;;;;;;28.10;99.90;;;;;;2701919;39;21561;31
2023/06/10 09:39:37;;;;;;;11.93;10.82;;;27.90;99.90;;;;;;2602917;54;20010;31
2023/06/10 09:42:20;;;;;;;11.50;10.23;;;27.70;99.90;;;;;;2603144;54;20989;31
2023/06/10 09:44:57;;;;;;;10.55;9.45;;;27.90;99.90;;;;;;2621403;46;20030;31
2023/06/10 09:47:31;;;;;;;10.60;9.70;;;28.00;99.90;;;;;;2602848;54;20030;31
2023/06/10 09:50:07;;;;;;;11.20;9.37;;;28.20;99.90;;;;;;2621099;46;20026;31
2023/06/10 09:52:44;;;;;;;10.25;9.35;;;28.40;99.90;;;;;;2602901;54;20027;31
2023/06/10 09:55:19;;;;;;;9.75;8.75;;;28.60;99.90;;;;;;2620942;46;20030;31
2023/06/10 09:57:56;;;;;;;10.70;9.17;;;28.70;99.90;;;;;;2602674;54;20049;31
2023/06/10 10:00:35;;;;;;;10.52;9.52;;;29.00;99.90;;;;;;2602631;54;20049;31
2023/06/10 10:03:10;;;;;;;10.00;9.00;;;29.10;99.90;;;;;;2602886;54;20023;31
2023/06/10 10:05:45;;;;;;;11.82;8.93;;;29.20;99.90;;;;;;2602697;54;20124;31
2023/06/10 10:08:20;;;;;;;9.37;8.57;;;29.20;99.90;;;;;;2602848;54;20864;31
2023/06/10 10:10:55;;;;;;;9.60;8.35;;;29.00;99.90;;;;;;2602751;54;20037;31
2023/06/10 10:13:30;;;;;;;10.82;8.43;;;29.10;99.90;;;;;;2602805;54;20152;31
2023/06/10 10:16:09;;;;;;;9.83;8.93;;;29.20;99.90;;;;;;2603056;54;22297;31
2023/06/10 10:18:45;;;;;;;11.57;8.20;;;29.30;99.90;;;;;;2602697;54;20247;31
2023/06/10 10:21:22;;;;;;;7.85;7.05;;;29.30;99.90;;;;;;2602556;54;19961;31
2023/06/10 10:23:59;;;;;;;7.53;6.83;;;29.40;99.90;;;;;;2602895;54;20033;31
2023/06/10 10:26:34;;;;;;;9.00;6.40;;;29.20;99.90;;;;;;2602769;54;20881;31
2023/06/10 10:29:13;;;;;;;9.00;6.55;;;29.20;99.90;;;;;;2602778;54;20917;31
2023/06/10 10:31:45;;;;;;;9.95;7.03;;;29.30;99.90;;;;;;2621432;46;20062;31
2023/06/10 10:34:28;;;;;;;10.82;6.90;;;29.10;99.90;;;;;;2602651;54;20839;31
2023/06/10 10:37:00;;;;;;;8.55;6.70;;;29.20;99.90;;;;;;2602678;54;20031;31
2023/06/10 10:39:36;;;;;;;8.63;6.28;;;29.20;99.90;;;;;;2602823;54;20983;31
2023/06/10 10:42:11;;;;;;;8.23;6.90;;;29.20;99.90;;;;;;2620981;46;20880;31
2023/06/10 10:44:46;;;;;;;;;;;29.20;99.90;;;;;;2602691;54;20910;31
2023/06/10 10:47:20;;;;;;;7.50;5.70;;;29.30;99.90;;;;;;2602661;54;19953;31
2023/06/10 10:49:59;;;;;;;8.50;6.17;;;29.20;99.90;;;;;;2621026;46;20108;31
2023/06/10 10:52:53;;;;;;;11.85;5.75;;;29.20;99.90;;;;;;2602703;54;21344;31
2023/06/10 10:55:29;;;;;;;8.18;5.20;;;29.10;99.90;;;;;;2602650;54;20031;31
2023/06/10 10:58:05;;;;;;;;;;;29.10;99.90;;;;;;2603157;54;20751;31
2023/06/10 11:00:41;;;;;;;9.27;5.38;;;29.10;99.90;;;;;;2621227;46;20736;31
2023/06/10 11:03:16;;;;;;;;;;;29.10;98.70;;;;;;2602967;54;20030;31
2023/06/10 11:05:54;;;;;;;5.65;4.72;;;29.10;98.60;;;;;;2602904;54;19938;31
2023/06/10 11:08:48;;;;;;;6.25;4.60;;;28.90;96.40;;;;;;2602779;54;20879;31
2023/06/10 11:11:26;;;;;;;6.75;4.95;;;28.80;97.60;;;;;;2602700;54;20033;31
2023/06/10 11:14:04;;;;;;;7.57;4.10;;;28.80;95.30;;;;;;2602504;54;20100;31
2023/06/10 11:16:42;;;;;;;7.22;4.70;;;28.80;95.90;;;;;;2602510;54;20920;31
2023/06/10 11:19:34;;;;;;;13.18;4.72;;;28.90;95.60;;;;;;2602443;54;20034;31
2023/06/10 11:22:12;;;;;;;7.47;5.15;;;29.00;95.80;;;;;;2602674;54;20076;31
2023/06/10 11:24:51;;;;;;;9.60;5.10;;;29.00;93.90;;;;;;2602491;54;20778;31
2023/06/10 11:27:24;;;;;;;5.47;4.68;;;29.00;92.30;;;;;;2602505;54;20037;31
2023/06/10 11:30:20;;;;;;;9.55;5.43;;;29.00;94.10;;;;;;2602583;54;20030;31
2023/06/10 11:32:55;;;;;;;9.23;4.85;;;29.10;91.90;;;;;;2602734;54;20878;31
2023/06/10 11:35:35;;;;;;;5.97;4.57;;;29.00;92.00;;;;;;2602727;54;20096;31
2023/06/10 11:38:13;;;;;;;7.68;4.78;;;29.00;92.40;;;;;;2602784;54;20886;31
2023/06/10 11:40:52;;;;;;;6.75;4.80;;;28.90;90.90;;;;;;2602645;54;20094;31
2023/06/10 11:43:28;;;;;;;6.20;4.40;;;29.00;91.80;;;;;;2602586;54;20037;31
2023/06/10 11:46:02;;;;;;;8.85;5.10;;;29.00;91.10;;;;;;2602576;54;20031;31
2023/06/10 11:48:37;;;;;;;5.13;4.47;;;29.00;88.70;;;;;;2602620;54;20030;31
2023/06/10 11:51:12;;;;;;;5.97;4.60;;;28.90;87.60;;;;;;2602594;54;20026;31
2023/06/10 11:53:51;;;;;;;7.88;4.43;;;28.90;89.10;;;;;;2602443;54;20026;31
2023/06/10 11:56:25;;;;;;;6.80;5.07;;;28.90;88.10;;;;;;2602914;54;20026;31
2023/06/10 11:59:04;;;;;;;7.60;4.60;;;28.90;89.30;;;;;;2603454;54;20030;31
2023/06/10 12:01:39;;;;;;;6.93;4.75;;;28.90;86.90;;;;;;2603329;54;20860;31
2023/06/10 12:04:21;;;;;;;6.05;5.00;;;28.80;85.70;;;;;;2621650;46;20033;31
2023/06/10 12:06:56;;;;;;;5.10;4.33;;;28.60;85.60;;;;;;2621442;46;20034;31
2023/06/10 12:09:33;;;;;;;;;;;28.70;83.90;;;;;;2603137;54;20867;31
2023/06/10 12:12:11;;;;;;;7.85;4.80;;;28.70;84.70;;;;;;2603348;54;20735;31
2023/06/10 12:14:59;;;;;;;9.15;4.68;;;28.80;86.70;;;;;;2603095;54;20034;31
2023/06/10 12:17:40;;;;;;;7.72;4.60;;;28.80;83.70;;;;;;2603355;54;20857;31
2023/06/10 12:20:27;;;;;;;6.82;4.30;;;28.80;84.00;;;;;;2621499;46;20026;31
2023/06/10 12:23:02;;;;;;;4.80;4.20;;;28.70;83.10;;;;;;2603338;54;20749;31
2023/06/10 12:25:41;;;;;;;9.48;4.93;;;28.70;84.60;;;;;;2603315;54;20873;31
2023/06/10 12:28:15;;;;;;;7.80;4.57;;;28.70;82.20;;;;;;2603132;54;20807;31
2023/06/10 12:30:50;;;;;;;5.67;4.30;;;28.70;83.90;;;;;;2603324;54;20899;31
2023/06/10 12:33:25;;;;;;;5.70;4.10;;;28.60;83.40;;;;;;2603204;54;20031;31
2023/06/10 12:36:00;;;;;;;8.52;4.28;;;28.40;82.70;;;;;;2603079;54;21178;31
2023/06/10 12:38:38;;;;;;;7.53;5.10;;;28.40;81.20;;;;;;2602999;54;20048;31
2023/06/10 12:41:16;;;;;;;6.05;4.30;;;28.40;82.00;;;;;;2603157;54;20992;31
2023/06/10 12:43:52;;;;;;;5.13;3.72;;;28.40;83.10;;;;;;2603227;54;20783;31
2023/06/10 12:46:26;;;;;;;7.75;4.10;;;28.40;82.70;;;;;;2603076;54;20757;31
2023/06/10 12:49:02;;;;;;;10.63;4.30;;;28.30;80.20;;;;;;2603055;54;20022;31
2023/06/10 12:51:37;;;;;;;10.15;3.45;;;28.30;78.70;;;;;;2603174;54;20034;31
2023/06/10 12:54:12;;;;;;;6.88;4.00;;;28.30;77.80;;;;;;2603040;54;21140;31
2023/06/10 12:56:49;;;;;;;6.88;3.78;;;28.20;76.00;;;;;;2603323;54;20026;31
2023/06/10 12:59:24;;;;;;;9.03;4.03;;;28.20;77.60;;;;;;2603036;54;20027;31
2023/06/10 13:01:59;;;;;;;6.55;3.65;;;28.20;77.00;;;;;;2603252;54;20030;31
2023/06/10 13:04:34;;;;;;;8.60;4.07;;;28.30;77.80;;;;;;2621096;46;20053;31
2023/06/10 13:07:10;;;;;;;4.33;3.70;;;28.30;79.20;;;;;;2602924;54;20050;31
2023/06/10 13:09:44;;;;;;;7.47;3.70;;;28.30;77.80;;;;;;2603010;54;20866;31
2023/06/10 13:12:22;;;;;;;7.15;4.05;;;28.40;76.40;;;;;;2603180;54;20027;31
2023/06/10 13:15:15;;;;;;;6.85;3.45;;;28.30;77.30;;;;;;2603060;54;21191;31
2023/06/10 13:17:50;;;;;;;7.83;3.60;;;28.40;75.70;;;;;;2602814;54;20026;31
2023/06/10 13:20:28;;;;;;;4.63;3.35;;;28.30;75.40;;;;;;2603146;54;21128;31
2023/06/10 13:23:03;;;;;;;7.47;4.25;;;28.20;75.30;;;;;;2621514;46;20042;31
2023/06/10 13:25:37;;;;;;;6.57;3.67;;;28.10;74.50;;;;;;2603124;54;20030;31
2023/06/10 13:28:14;;;;;;;4.18;3.58;;;28.10;74.80;;;;;;2603059;54;20022;31
2023/06/10 13:30:49;;;;;;;6.15;3.28;;;28.10;74.30;;;;;;2603144;54;20749;31
2023/06/10 13:33:24;;;;;;;7.05;3.45;;;28.10;74.70;;;;;;2621560;46;20027;31
2023/06/10 13:35:59;;;;;;;;;;;28.10;73.70;;;;;;2603195;54;20030;31
2023/06/10 13:38:35;;;;;;;7.32;3.38;;;28.10;71.10;;;;;;2602954;54;20682;31